sensor_id;sensor_type;location;lat;lon;timestamp;temperature;humidity
22852;DHT22;11592;45.460;9.240;2022-10-31T00:01:25;16.60;99.90
22852;DHT22;11592;45.460;9.240;2022-10-31T00:03:52;16.50;99.90
22852;DHT22;11592;45.460;9.240;2022-10-31T00:06:19;16.60;99.90
22852;DHT22;11592;45.460;9.240;2022-10-31T00:08:55;16.50;99.90
22852;DHT22;11592;45.460;9.240;2022-10-31T00:11:22;16.50;99.90
22852;DHT22;11592;45.460;9.240;2022-10-31T00:13:49;16.50;99.90
22852;DHT22;11592;45.460;9.240;2022-10-31T00:16:17;16.50;99.90
22852;DHT22;11592;45.460;9.240;2022-10-31T00:18:48;16.40;99.90
22852;DHT22;11592;45.460;9.240;2022-10-31T00:21:16;16.40;99.90
22852;DHT22;11592;45.460;9.240;2022-10-31T00:23:42;16.40;99.90
22852;DHT22;11592;45.460;9.240;2022-10-31T00:26:09;16.40;99.90
22852;DHT22;11592;45.460;9.240;2022-10-31T00:28:36;16.40;99.90
22852;DHT22;11592;45.460;9.240;2022-10-31T00:31:05;16.40;99.90
22852;DHT22;11592;45.460;9.240;2022-10-31T00:33:36;16.40;99.90
22852;DHT22;11592;45.460;9.240;2022-10-31T00:36:05;16.40;99.90
22852;DHT22;11592;45.460;9.240;2022-10-31T00:38:32;16.30;99.90
22852;DHT22;11592;45.460;9.240;2022-10-31T00:40:59;16.30;99.90
22852;DHT22;11592;45.460;9.240;2022-10-31T00:43:26;16.30;99.90
22852;DHT22;11592;45.460;9.240;2022-10-31T00:45:53;16.30;99.90
22852;DHT22;11592;45.460;9.240;2022-10-31T00:48:20;16.30;99.90
22852;DHT22;11592;45.460;9.240;2022-10-31T00:50:47;16.30;99.90
22852;DHT22;11592;45.460;9.240;2022-10-31T00:53:13;16.20;99.90
22852;DHT22;11592;45.460;9.240;2022-10-31T00:55:40;16.20;99.90
22852;DHT22;11592;45.460;9.240;2022-10-31T00:58:07;16.20;99.90
22852;DHT22;11592;45.460;9.240;2022-10-31T01:00:34;16.20;99.90
22852;DHT22;11592;45.460;9.240;2022-10-31T01:03:01;16.10;99.90
22852;DHT22;11592;45.460;9.240;2022-10-31T01:05:28;16.10;99.90
22852;DHT22;11592;45.460;9.240;2022-10-31T01:07:55;16.10;99.90
22852;DHT22;11592;45.460;9.240;2022-10-31T01:10:22;16.10;99.90
22852;DHT22;11592;45.460;9.240;2022-10-31T01:12:49;16.00;99.90
22852;DHT22;11592;45.460;9.240;2022-10-31T01:15:22;16.00;99.90
22852;DHT22;11592;45.460;9.240;2022-10-31T01:17:49;16.00;99.90
22852;DHT22;11592;45.460;9.240;2022-10-31T01:20:17;16.00;99.90
22852;DHT22;11592;45.460;9.240;2022-10-31T01:22:44;16.00;99.90
22852;DHT22;11592;45.460;9.240;2022-10-31T01:25:11;16.00;99.90
22852;DHT22;11592;45.460;9.240;2022-10-31T01:27:38;16.00;99.90
22852;DHT22;11592;45.460;9.240;2022-10-31T01:30:05;15.90;99.90
22852;DHT22;11592;45.460;9.240;2022-10-31T01:32:32;15.90;99.90
22852;DHT22;11592;45.460;9.240;2022-10-31T01:34:59;15.90;99.90
22852;DHT22;11592;45.460;9.240;2022-10-31T01:37:25;15.90;99.90
22852;DHT22;11592;45.460;9.240;2022-10-31T01:39:52;15.90;99.90
22852;DHT22;11592;45.460;9.240;2022-10-31T01:42:21;15.80;99.90
22852;DHT22;11592;45.460;9.240;2022-10-31T01:44:52;15.80;99.90
22852;DHT22;11592;45.460;9.240;2022-10-31T01:47:25;15.80;99.90
22852;DHT22;11592;45.460;9.240;2022-10-31T01:49:57;15.80;99.90
22852;DHT22;11592;45.460;9.240;2022-10-31T01:52:46;15.80;99.90
22852;DHT22;11592;45.460;9.240;2022-10-31T01:55:32;15.80;99.90
22852;DHT22;11592;45.460;9.240;2022-10-31T01:58:25;15.80;99.90
22852;DHT22;11592;45.460;9.240;2022-10-31T02:00:58;15.80;99.90
22852;DHT22;11592;45.460;9.240;2022-10-31T02:03:32;15.80;99.90
22852;DHT22;11592;45.460;9.240;2022-10-31T02:05:59;15.70;99.90
22852;DHT22;11592;45.460;9.240;2022-10-31T02:08:28;15.70;99.90
22852;DHT22;11592;45.460;9.240;2022-10-31T02:11:00;15.70;99.90
22852;DHT22;11592;45.460;9.240;2022-10-31T02:13:29;15.70;99.90
22852;DHT22;11592;45.460;9.240;2022-10-31T02:15:58;15.70;99.90
22852;DHT22;11592;45.460;9.240;2022-10-31T02:18:27;15.70;99.90
22852;DHT22;11592;45.460;9.240;2022-10-31T02:26:41;15.70;99.90
22852;DHT22;11592;45.460;9.240;2022-10-31T02:29:24;15.60;99.90
22852;DHT22;11592;45.460;9.240;2022-10-31T02:37:13;15.70;99.90
22852;DHT22;11592;45.460;9.240;2022-10-31T02:45:39;15.60;99.90
22852;DHT22;11592;45.460;9.240;2022-10-31T02:48:12;15.70;99.90
22852;DHT22;11592;45.460;9.240;2022-10-31T02:50:50;15.70;99.90
22852;DHT22;11592;45.460;9.240;2022-10-31T02:53:19;15.60;99.90
22852;DHT22;11592;45.460;9.240;2022-10-31T02:58:39;15.60;99.90
22852;DHT22;11592;45.460;9.240;2022-10-31T03:04:09;15.70;99.90
22852;DHT22;11592;45.460;9.240;2022-10-31T03:10:07;15.70;99.90
22852;DHT22;11592;45.460;9.240;2022-10-31T03:13:01;15.70;99.90
22852;DHT22;11592;45.460;9.240;2022-10-31T03:15:34;15.60;99.90
22852;DHT22;11592;45.460;9.240;2022-10-31T03:20:41;15.60;99.90
22852;DHT22;11592;45.460;9.240;2022-10-31T03:23:13;15.60;99.90
22852;DHT22;11592;45.460;9.240;2022-10-31T03:25:42;15.50;99.90
22852;DHT22;11592;45.460;9.240;2022-10-31T03:28:12;15.60;99.90
22852;DHT22;11592;45.460;9.240;2022-10-31T03:30:43;15.60;99.90
22852;DHT22;11592;45.460;9.240;2022-10-31T03:33:15;15.60;99.90
22852;DHT22;11592;45.460;9.240;2022-10-31T03:35:45;15.60;99.90
22852;DHT22;11592;45.460;9.240;2022-10-31T03:38:13;15.60;99.90
22852;DHT22;11592;45.460;9.240;2022-10-31T03:40:43;15.60;99.90
22852;DHT22;11592;45.460;9.240;2022-10-31T03:43:15;15.60;99.90
22852;DHT22;11592;45.460;9.240;2022-10-31T03:45:47;15.50;99.90
22852;DHT22;11592;45.460;9.240;2022-10-31T03:48:15;15.50;99.90
22852;DHT22;11592;45.460;9.240;2022-10-31T03:53:33;15.50;99.90
22852;DHT22;11592;45.460;9.240;2022-10-31T03:56:09;15.50;99.90
22852;DHT22;11592;45.460;9.240;2022-10-31T03:58:43;15.60;99.90
22852;DHT22;11592;45.460;9.240;2022-10-31T04:01:14;15.50;99.90
22852;DHT22;11592;45.460;9.240;2022-10-31T04:03:42;15.50;99.90
22852;DHT22;11592;45.460;9.240;2022-10-31T04:06:12;15.50;99.90
22852;DHT22;11592;45.460;9.240;2022-10-31T04:08:54;15.50;99.90
22852;DHT22;11592;45.460;9.240;2022-10-31T04:11:25;15.50;99.90
22852;DHT22;11592;45.460;9.240;2022-10-31T04:13:55;15.40;99.90
22852;DHT22;11592;45.460;9.240;2022-10-31T04:16:24;15.40;99.90
22852;DHT22;11592;45.460;9.240;2022-10-31T04:18:51;15.50;99.90
22852;DHT22;11592;45.460;9.240;2022-10-31T04:21:18;15.40;99.90
22852;DHT22;11592;45.460;9.240;2022-10-31T04:23:45;15.40;99.90
22852;DHT22;11592;45.460;9.240;2022-10-31T04:26:12;15.40;99.90
22852;DHT22;11592;45.460;9.240;2022-10-31T04:28:38;15.40;99.90
22852;DHT22;11592;45.460;9.240;2022-10-31T04:31:05;15.40;99.90
22852;DHT22;11592;45.460;9.240;2022-10-31T04:33:32;15.40;99.90
22852;DHT22;11592;45.460;9.240;2022-10-31T04:35:59;15.40;99.90
22852;DHT22;11592;45.460;9.240;2022-10-31T04:38:25;15.40;99.90
22852;DHT22;11592;45.460;9.240;2022-10-31T04:40:52;15.40;99.90
22852;DHT22;11592;45.460;9.240;2022-10-31T04:43:19;15.30;99.90
22852;DHT22;11592;45.460;9.240;2022-10-31T04:45:50;15.20;99.90
22852;DHT22;11592;45.460;9.240;2022-10-31T04:48:17;15.30;99.90
22852;DHT22;11592;45.460;9.240;2022-10-31T04:50:44;15.40;99.90
22852;DHT22;11592;45.460;9.240;2022-10-31T04:53:11;15.40;99.90
22852;DHT22;11592;45.460;9.240;2022-10-31T04:55:38;15.40;99.90
22852;DHT22;11592;45.460;9.240;2022-10-31T04:58:04;15.40;99.90
22852;DHT22;11592;45.460;9.240;2022-10-31T05:00:32;15.40;99.90
22852;DHT22;11592;45.460;9.240;2022-10-31T05:02:58;15.30;99.90
22852;DHT22;11592;45.460;9.240;2022-10-31T05:05:29;15.30;99.90
22852;DHT22;11592;45.460;9.240;2022-10-31T05:07:56;15.30;99.90
22852;DHT22;11592;45.460;9.240;2022-10-31T05:10:25;15.20;99.90
22852;DHT22;11592;45.460;9.240;2022-10-31T05:12:57;15.20;99.90
22852;DHT22;11592;45.460;9.240;2022-10-31T05:15:26;15.20;99.90
22852;DHT22;11592;45.460;9.240;2022-10-31T05:17:54;15.20;99.90
22852;DHT22;11592;45.460;9.240;2022-10-31T05:20:23;15.30;99.90
22852;DHT22;11592;45.460;9.240;2022-10-31T05:22:53;15.20;99.90
22852;DHT22;11592;45.460;9.240;2022-10-31T05:25:21;15.20;99.90
22852;DHT22;11592;45.460;9.240;2022-10-31T05:27:50;15.20;99.90
22852;DHT22;11592;45.460;9.240;2022-10-31T05:30:22;15.10;99.90
22852;DHT22;11592;45.460;9.240;2022-10-31T05:32:50;15.10;99.90
22852;DHT22;11592;45.460;9.240;2022-10-31T05:35:20;15.10;99.90
22852;DHT22;11592;45.460;9.240;2022-10-31T05:37:47;15.10;99.90
22852;DHT22;11592;45.460;9.240;2022-10-31T05:40:15;15.10;99.90
22852;DHT22;11592;45.460;9.240;2022-10-31T05:42:43;15.10;99.90
22852;DHT22;11592;45.460;9.240;2022-10-31T05:45:15;15.10;99.90
22852;DHT22;11592;45.460;9.240;2022-10-31T05:47:42;15.10;99.90
22852;DHT22;11592;45.460;9.240;2022-10-31T05:50:09;15.10;99.90
22852;DHT22;11592;45.460;9.240;2022-10-31T05:52:36;15.10;99.90
22852;DHT22;11592;45.460;9.240;2022-10-31T05:55:03;15.00;99.90
22852;DHT22;11592;45.460;9.240;2022-10-31T05:57:32;15.10;99.90
22852;DHT22;11592;45.460;9.240;2022-10-31T05:59:59;15.10;99.90
22852;DHT22;11592;45.460;9.240;2022-10-31T06:02:26;15.00;99.90
22852;DHT22;11592;45.460;9.240;2022-10-31T06:04:53;15.00;99.90
22852;DHT22;11592;45.460;9.240;2022-10-31T06:07:20;15.00;99.90
22852;DHT22;11592;45.460;9.240;2022-10-31T06:09:46;15.00;99.90
22852;DHT22;11592;45.460;9.240;2022-10-31T06:12:13;15.10;99.90
22852;DHT22;11592;45.460;9.240;2022-10-31T06:14:40;15.00;99.90
22852;DHT22;11592;45.460;9.240;2022-10-31T06:17:07;15.00;99.90
22852;DHT22;11592;45.460;9.240;2022-10-31T06:19:33;15.00;99.90
22852;DHT22;11592;45.460;9.240;2022-10-31T06:22:00;15.00;99.90
22852;DHT22;11592;45.460;9.240;2022-10-31T06:24:27;15.00;99.90
22852;DHT22;11592;45.460;9.240;2022-10-31T06:26:53;15.00;99.90
22852;DHT22;11592;45.460;9.240;2022-10-31T06:29:20;15.10;99.90
22852;DHT22;11592;45.460;9.240;2022-10-31T06:31:47;15.10;99.90
22852;DHT22;11592;45.460;9.240;2022-10-31T06:34:14;15.10;99.90
22852;DHT22;11592;45.460;9.240;2022-10-31T06:36:41;15.10;99.90
22852;DHT22;11592;45.460;9.240;2022-10-31T06:39:09;15.20;99.90
22852;DHT22;11592;45.460;9.240;2022-10-31T06:41:35;15.20;99.90
22852;DHT22;11592;45.460;9.240;2022-10-31T06:44:03;15.30;99.90
22852;DHT22;11592;45.460;9.240;2022-10-31T06:46:34;15.30;99.90
22852;DHT22;11592;45.460;9.240;2022-10-31T06:49:01;15.40;99.90
22852;DHT22;11592;45.460;9.240;2022-10-31T06:51:27;15.40;99.90
22852;DHT22;11592;45.460;9.240;2022-10-31T06:53:54;15.40;99.90
22852;DHT22;11592;45.460;9.240;2022-10-31T06:56:21;15.50;99.90
22852;DHT22;11592;45.460;9.240;2022-10-31T06:58:47;15.50;99.90
22852;DHT22;11592;45.460;9.240;2022-10-31T07:01:14;15.60;99.90
22852;DHT22;11592;45.460;9.240;2022-10-31T07:03:41;15.60;99.90
22852;DHT22;11592;45.460;9.240;2022-10-31T07:06:08;15.70;99.90
22852;DHT22;11592;45.460;9.240;2022-10-31T07:08:34;15.70;99.90
22852;DHT22;11592;45.460;9.240;2022-10-31T07:11:01;15.80;99.90
22852;DHT22;11592;45.460;9.240;2022-10-31T07:13:28;15.90;99.90
22852;DHT22;11592;45.460;9.240;2022-10-31T07:16:00;16.00;99.90
22852;DHT22;11592;45.460;9.240;2022-10-31T07:18:28;16.10;99.90
22852;DHT22;11592;45.460;9.240;2022-10-31T07:20:55;16.20;99.90
22852;DHT22;11592;45.460;9.240;2022-10-31T07:23:22;16.30;99.90
22852;DHT22;11592;45.460;9.240;2022-10-31T07:25:48;16.40;99.90
22852;DHT22;11592;45.460;9.240;2022-10-31T07:28:20;16.50;99.90
22852;DHT22;11592;45.460;9.240;2022-10-31T07:30:55;16.60;99.90
22852;DHT22;11592;45.460;9.240;2022-10-31T07:33:22;16.70;99.90
22852;DHT22;11592;45.460;9.240;2022-10-31T07:35:49;16.80;99.90
22852;DHT22;11592;45.460;9.240;2022-10-31T07:38:16;16.90;99.90
22852;DHT22;11592;45.460;9.240;2022-10-31T07:40:43;16.90;99.90
22852;DHT22;11592;45.460;9.240;2022-10-31T07:43:11;17.00;99.90
22852;DHT22;11592;45.460;9.240;2022-10-31T07:45:40;17.10;99.90
22852;DHT22;11592;45.460;9.240;2022-10-31T07:48:07;17.20;99.90
22852;DHT22;11592;45.460;9.240;2022-10-31T07:50:34;17.30;99.90
22852;DHT22;11592;45.460;9.240;2022-10-31T07:53:04;17.40;99.90
22852;DHT22;11592;45.460;9.240;2022-10-31T07:55:32;17.50;99.90
22852;DHT22;11592;45.460;9.240;2022-10-31T07:58:06;17.50;99.90
22852;DHT22;11592;45.460;9.240;2022-10-31T08:00:35;17.60;99.90
22852;DHT22;11592;45.460;9.240;2022-10-31T08:03:05;17.70;99.90
22852;DHT22;11592;45.460;9.240;2022-10-31T08:05:32;17.80;99.90
22852;DHT22;11592;45.460;9.240;2022-10-31T08:07:59;17.80;99.90
22852;DHT22;11592;45.460;9.240;2022-10-31T08:10:27;17.90;99.90
22852;DHT22;11592;45.460;9.240;2022-10-31T08:13:09;18.00;99.90
22852;DHT22;11592;45.460;9.240;2022-10-31T08:15:36;18.00;99.90
22852;DHT22;11592;45.460;9.240;2022-10-31T08:18:06;18.10;99.90
22852;DHT22;11592;45.460;9.240;2022-10-31T08:20:36;18.20;99.90
22852;DHT22;11592;45.460;9.240;2022-10-31T08:23:04;18.20;99.90
22852;DHT22;11592;45.460;9.240;2022-10-31T08:25:33;18.30;99.90
22852;DHT22;11592;45.460;9.240;2022-10-31T08:28:05;18.30;99.90
22852;DHT22;11592;45.460;9.240;2022-10-31T08:30:34;18.40;99.90
22852;DHT22;11592;45.460;9.240;2022-10-31T08:33:04;18.50;99.90
22852;DHT22;11592;45.460;9.240;2022-10-31T08:35:32;18.50;99.90
22852;DHT22;11592;45.460;9.240;2022-10-31T08:37:59;18.60;99.90
22852;DHT22;11592;45.460;9.240;2022-10-31T08:40:28;18.70;99.90
22852;DHT22;11592;45.460;9.240;2022-10-31T08:42:56;18.70;99.90
22852;DHT22;11592;45.460;9.240;2022-10-31T08:45:24;18.80;99.90
22852;DHT22;11592;45.460;9.240;2022-10-31T08:47:51;18.80;99.90
22852;DHT22;11592;45.460;9.240;2022-10-31T08:50:18;18.80;99.90
22852;DHT22;11592;45.460;9.240;2022-10-31T08:52:45;18.70;99.90
22852;DHT22;11592;45.460;9.240;2022-10-31T08:55:32;18.70;99.90
22852;DHT22;11592;45.460;9.240;2022-10-31T08:57:59;18.80;99.90
22852;DHT22;11592;45.460;9.240;2022-10-31T09:00:26;18.80;99.90
22852;DHT22;11592;45.460;9.240;2022-10-31T09:03:00;18.80;99.90
22852;DHT22;11592;45.460;9.240;2022-10-31T09:05:28;18.90;99.90
22852;DHT22;11592;45.460;9.240;2022-10-31T09:07:59;18.90;99.90
22852;DHT22;11592;45.460;9.240;2022-10-31T09:10:28;18.90;99.90
22852;DHT22;11592;45.460;9.240;2022-10-31T09:13:00;18.90;99.90
22852;DHT22;11592;45.460;9.240;2022-10-31T09:15:27;19.00;99.90
22852;DHT22;11592;45.460;9.240;2022-10-31T09:17:54;19.00;99.90
22852;DHT22;11592;45.460;9.240;2022-10-31T09:20:22;19.10;99.90
22852;DHT22;11592;45.460;9.240;2022-10-31T09:22:56;19.10;99.90
22852;DHT22;11592;45.460;9.240;2022-10-31T09:25:23;19.10;99.90
22852;DHT22;11592;45.460;9.240;2022-10-31T09:27:50;19.10;99.90
22852;DHT22;11592;45.460;9.240;2022-10-31T09:30:17;19.10;99.90
22852;DHT22;11592;45.460;9.240;2022-10-31T09:32:44;19.10;99.90
22852;DHT22;11592;45.460;9.240;2022-10-31T09:35:10;19.00;99.90
22852;DHT22;11592;45.460;9.240;2022-10-31T09:37:37;19.20;99.90
22852;DHT22;11592;45.460;9.240;2022-10-31T09:40:04;19.30;99.90
22852;DHT22;11592;45.460;9.240;2022-10-31T09:45:36;19.40;99.90
22852;DHT22;11592;45.460;9.240;2022-10-31T09:50:58;19.80;99.90
22852;DHT22;11592;45.460;9.240;2022-10-31T09:53:42;19.70;99.90
22852;DHT22;11592;45.460;9.240;2022-10-31T09:56:14;19.80;99.90
22852;DHT22;11592;45.460;9.240;2022-10-31T09:58:44;19.90;99.90
22852;DHT22;11592;45.460;9.240;2022-10-31T10:06:53;20.80;99.90
22852;DHT22;11592;45.460;9.240;2022-10-31T10:09:24;21.00;99.90
22852;DHT22;11592;45.460;9.240;2022-10-31T10:17:52;21.40;99.90
22852;DHT22;11592;45.460;9.240;2022-10-31T10:20:54;21.60;99.90
22852;DHT22;11592;45.460;9.240;2022-10-31T10:26:10;21.80;99.90
22852;DHT22;11592;45.460;9.240;2022-10-31T10:28:42;21.90;99.90
22852;DHT22;11592;45.460;9.240;2022-10-31T10:31:23;22.10;99.90
22852;DHT22;11592;45.460;9.240;2022-10-31T10:36:41;22.80;99.90
22852;DHT22;11592;45.460;9.240;2022-10-31T10:39:18;23.50;99.90
22852;DHT22;11592;45.460;9.240;2022-10-31T10:41:48;24.20;99.90
22852;DHT22;11592;45.460;9.240;2022-10-31T10:44:38;24.50;99.90
22852;DHT22;11592;45.460;9.240;2022-10-31T10:47:37;24.60;99.90
22852;DHT22;11592;45.460;9.240;2022-10-31T10:50:19;24.60;99.90
22852;DHT22;11592;45.460;9.240;2022-10-31T10:55:55;24.60;99.90
22852;DHT22;11592;45.460;9.240;2022-10-31T10:58:24;24.70;99.90
22852;DHT22;11592;45.460;9.240;2022-10-31T11:00:54;25.80;99.90
22852;DHT22;11592;45.460;9.240;2022-10-31T11:03:21;28.10;99.90
22852;DHT22;11592;45.460;9.240;2022-10-31T11:05:55;31.00;98.60
22852;DHT22;11592;45.460;9.240;2022-10-31T11:08:26;32.90;95.30
22852;DHT22;11592;45.460;9.240;2022-10-31T11:11:24;34.70;92.00
22852;DHT22;11592;45.460;9.240;2022-10-31T11:14:04;35.90;89.00
22852;DHT22;11592;45.460;9.240;2022-10-31T11:16:37;36.80;81.40
22852;DHT22;11592;45.460;9.240;2022-10-31T11:19:27;36.90;78.60
22852;DHT22;11592;45.460;9.240;2022-10-31T11:21:54;38.00;73.60
22852;DHT22;11592;45.460;9.240;2022-10-31T11:24:38;38.50;71.00
22852;DHT22;11592;45.460;9.240;2022-10-31T11:27:21;39.30;69.10
22852;DHT22;11592;45.460;9.240;2022-10-31T11:29:51;39.70;65.00
22852;DHT22;11592;45.460;9.240;2022-10-31T11:32:27;40.60;63.30
22852;DHT22;11592;45.460;9.240;2022-10-31T11:34:56;41.00;59.90
22852;DHT22;11592;45.460;9.240;2022-10-31T11:37:29;40.20;59.70
22852;DHT22;11592;45.460;9.240;2022-10-31T11:39:59;37.80;61.30
22852;DHT22;11592;45.460;9.240;2022-10-31T11:42:34;36.30;65.50
22852;DHT22;11592;45.460;9.240;2022-10-31T11:45:12;34.60;67.30
22852;DHT22;11592;45.460;9.240;2022-10-31T11:47:46;33.00;70.40
22852;DHT22;11592;45.460;9.240;2022-10-31T11:50:40;31.40;72.60
22852;DHT22;11592;45.460;9.240;2022-10-31T11:53:17;30.00;76.60
22852;DHT22;11592;45.460;9.240;2022-10-31T11:55:45;29.30;79.80
22852;DHT22;11592;45.460;9.240;2022-10-31T11:58:23;29.30;82.80
22852;DHT22;11592;45.460;9.240;2022-10-31T12:00:53;30.50;79.90
22852;DHT22;11592;45.460;9.240;2022-10-31T12:03:29;32.40;76.60
22852;DHT22;11592;45.460;9.240;2022-10-31T12:06:03;34.10;73.90
22852;DHT22;11592;45.460;9.240;2022-10-31T12:08:34;35.60;69.60
22852;DHT22;11592;45.460;9.240;2022-10-31T12:16:57;31.10;76.00
22852;DHT22;11592;45.460;9.240;2022-10-31T12:25:03;33.90;72.80
22852;DHT22;11592;45.460;9.240;2022-10-31T12:30:39;39.10;62.00
22852;DHT22;11592;45.460;9.240;2022-10-31T12:44:49;43.20;48.60
22852;DHT22;11592;45.460;9.240;2022-10-31T12:56:01;44.30;46.30
22852;DHT22;11592;45.460;9.240;2022-10-31T13:01:30;44.20;45.30
22852;DHT22;11592;45.460;9.240;2022-10-31T13:04:16;42.80;47.60
22852;DHT22;11592;45.460;9.240;2022-10-31T13:06:53;40.90;52.60
22852;DHT22;11592;45.460;9.240;2022-10-31T13:10:06;39.80;53.30
22852;DHT22;11592;45.460;9.240;2022-10-31T13:12:31;38.80;53.00
22852;DHT22;11592;45.460;9.240;2022-10-31T13:17:47;36.00;55.30
22852;DHT22;11592;45.460;9.240;2022-10-31T13:20:32;36.80;55.60
22852;DHT22;11592;45.460;9.240;2022-10-31T13:26:38;41.20;52.00
22852;DHT22;11592;45.460;9.240;2022-10-31T13:29:32;42.80;49.00
22852;DHT22;11592;45.460;9.240;2022-10-31T13:32:04;43.80;49.10
22852;DHT22;11592;45.460;9.240;2022-10-31T13:34:40;44.00;47.50
22852;DHT22;11592;45.460;9.240;2022-10-31T13:37:29;43.80;47.20
22852;DHT22;11592;45.460;9.240;2022-10-31T13:40:05;43.70;47.90
22852;DHT22;11592;45.460;9.240;2022-10-31T13:45:17;43.70;47.00
22852;DHT22;11592;45.460;9.240;2022-10-31T13:47:59;44.00;46.00
22852;DHT22;11592;45.460;9.240;2022-10-31T13:50:29;44.20;44.40
22852;DHT22;11592;45.460;9.240;2022-10-31T13:53:35;44.00;44.60
22852;DHT22;11592;45.460;9.240;2022-10-31T13:58:35;43.80;44.60
22852;DHT22;11592;45.460;9.240;2022-10-31T14:03:33;43.80;45.20
22852;DHT22;11592;45.460;9.240;2022-10-31T14:06:23;43.80;44.60
22852;DHT22;11592;45.460;9.240;2022-10-31T14:09:01;43.80;43.80
22852;DHT22;11592;45.460;9.240;2022-10-31T14:11:28;43.80;44.00
22852;DHT22;11592;45.460;9.240;2022-10-31T14:14:02;42.70;44.90
22852;DHT22;11592;45.460;9.240;2022-10-31T14:16:31;39.70;46.10
22852;DHT22;11592;45.460;9.240;2022-10-31T14:19:04;37.10;48.40
22852;DHT22;11592;45.460;9.240;2022-10-31T14:21:38;34.90;52.00
22852;DHT22;11592;45.460;9.240;2022-10-31T14:24:31;33.00;55.90
22852;DHT22;11592;45.460;9.240;2022-10-31T14:27:01;31.60;57.70
22852;DHT22;11592;45.460;9.240;2022-10-31T14:29:30;30.50;59.30
22852;DHT22;11592;45.460;9.240;2022-10-31T14:37:11;28.50;68.60
22852;DHT22;11592;45.460;9.240;2022-10-31T14:51:33;26.90;75.30
22852;DHT22;11592;45.460;9.240;2022-10-31T14:54:02;26.70;75.90
22852;DHT22;11592;45.460;9.240;2022-10-31T14:56:33;26.50;81.80
22852;DHT22;11592;45.460;9.240;2022-10-31T14:59:04;26.30;84.40
22852;DHT22;11592;45.460;9.240;2022-10-31T15:01:35;26.20;86.30
22852;DHT22;11592;45.460;9.240;2022-10-31T15:04:18;26.10;89.10
22852;DHT22;11592;45.460;9.240;2022-10-31T15:07:16;25.90;90.70
22852;DHT22;11592;45.460;9.240;2022-10-31T15:10:04;25.80;91.60
22852;DHT22;11592;45.460;9.240;2022-10-31T15:12:36;25.60;92.20
22852;DHT22;11592;45.460;9.240;2022-10-31T15:15:17;25.60;90.30
22852;DHT22;11592;45.460;9.240;2022-10-31T15:17:52;25.60;91.60
22852;DHT22;11592;45.460;9.240;2022-10-31T15:20:21;25.50;93.50
22852;DHT22;11592;45.460;9.240;2022-10-31T15:22:50;25.50;93.30
22852;DHT22;11592;45.460;9.240;2022-10-31T15:25:22;25.40;93.90
22852;DHT22;11592;45.460;9.240;2022-10-31T15:27:50;25.40;94.50
22852;DHT22;11592;45.460;9.240;2022-10-31T15:30:25;25.20;94.40
22852;DHT22;11592;45.460;9.240;2022-10-31T15:32:53;25.10;94.10
22852;DHT22;11592;45.460;9.240;2022-10-31T15:35:30;25.10;94.10
22852;DHT22;11592;45.460;9.240;2022-10-31T15:37:58;24.90;95.80
22852;DHT22;11592;45.460;9.240;2022-10-31T15:40:26;24.70;96.30
22852;DHT22;11592;45.460;9.240;2022-10-31T15:43:03;24.40;96.60
22852;DHT22;11592;45.460;9.240;2022-10-31T15:45:31;24.20;97.10
22852;DHT22;11592;45.460;9.240;2022-10-31T15:48:03;24.00;98.10
22852;DHT22;11592;45.460;9.240;2022-10-31T15:50:52;23.90;98.70
22852;DHT22;11592;45.460;9.240;2022-10-31T15:55:57;23.60;99.90
22852;DHT22;11592;45.460;9.240;2022-10-31T15:58:25;23.50;99.90
22852;DHT22;11592;45.460;9.240;2022-10-31T16:01:06;23.40;99.90
22852;DHT22;11592;45.460;9.240;2022-10-31T16:06:24;23.10;99.90
22852;DHT22;11592;45.460;9.240;2022-10-31T16:08:51;23.00;99.90
22852;DHT22;11592;45.460;9.240;2022-10-31T16:11:32;22.90;99.90
22852;DHT22;11592;45.460;9.240;2022-10-31T16:16:50;22.60;99.90
22852;DHT22;11592;45.460;9.240;2022-10-31T16:19:32;22.50;99.90
22852;DHT22;11592;45.460;9.240;2022-10-31T16:22:11;22.40;99.90
22852;DHT22;11592;45.460;9.240;2022-10-31T16:25:14;22.30;99.90
22852;DHT22;11592;45.460;9.240;2022-10-31T16:27:48;22.10;99.90
22852;DHT22;11592;45.460;9.240;2022-10-31T16:32:58;21.90;99.90
22852;DHT22;11592;45.460;9.240;2022-10-31T16:35:37;21.80;99.90
22852;DHT22;11592;45.460;9.240;2022-10-31T16:38:04;21.70;99.90
22852;DHT22;11592;45.460;9.240;2022-10-31T16:40:32;21.70;99.90
22852;DHT22;11592;45.460;9.240;2022-10-31T16:43:00;21.60;99.90
22852;DHT22;11592;45.460;9.240;2022-10-31T16:45:29;21.60;99.90
22852;DHT22;11592;45.460;9.240;2022-10-31T16:48:11;21.50;99.90
22852;DHT22;11592;45.460;9.240;2022-10-31T16:50:38;21.50;99.90
22852;DHT22;11592;45.460;9.240;2022-10-31T16:53:04;21.40;99.90
22852;DHT22;11592;45.460;9.240;2022-10-31T16:55:55;21.40;99.90
22852;DHT22;11592;45.460;9.240;2022-10-31T16:58:25;21.30;99.90
22852;DHT22;11592;45.460;9.240;2022-10-31T17:00:52;21.20;99.90
22852;DHT22;11592;45.460;9.240;2022-10-31T17:03:19;21.20;99.90
22852;DHT22;11592;45.460;9.240;2022-10-31T17:05:46;21.10;99.90
22852;DHT22;11592;45.460;9.240;2022-10-31T17:08:13;21.10;99.90
22852;DHT22;11592;45.460;9.240;2022-10-31T17:10:41;21.00;99.90
22852;DHT22;11592;45.460;9.240;2022-10-31T17:13:13;21.00;99.90
22852;DHT22;11592;45.460;9.240;2022-10-31T17:15:44;20.90;99.90
22852;DHT22;11592;45.460;9.240;2022-10-31T17:18:13;20.80;99.90
22852;DHT22;11592;45.460;9.240;2022-10-31T17:20:41;20.80;99.90
22852;DHT22;11592;45.460;9.240;2022-10-31T17:23:12;20.80;99.90
22852;DHT22;11592;45.460;9.240;2022-10-31T17:25:39;20.70;99.90
22852;DHT22;11592;45.460;9.240;2022-10-31T17:28:07;20.60;99.90
22852;DHT22;11592;45.460;9.240;2022-10-31T17:30:37;20.60;99.90
22852;DHT22;11592;45.460;9.240;2022-10-31T17:33:03;20.60;99.90
22852;DHT22;11592;45.460;9.240;2022-10-31T17:35:30;20.50;99.90
22852;DHT22;11592;45.460;9.240;2022-10-31T17:37:57;20.50;99.90
22852;DHT22;11592;45.460;9.240;2022-10-31T17:40:24;20.40;99.90
22852;DHT22;11592;45.460;9.240;2022-10-31T17:42:55;20.40;99.90
22852;DHT22;11592;45.460;9.240;2022-10-31T17:45:24;20.40;99.90
22852;DHT22;11592;45.460;9.240;2022-10-31T17:47:52;20.30;99.90
22852;DHT22;11592;45.460;9.240;2022-10-31T17:50:21;20.20;99.90
22852;DHT22;11592;45.460;9.240;2022-10-31T17:52:49;20.20;99.90
22852;DHT22;11592;45.460;9.240;2022-10-31T17:55:16;20.20;99.90
22852;DHT22;11592;45.460;9.240;2022-10-31T17:57:44;20.10;99.90
22852;DHT22;11592;45.460;9.240;2022-10-31T18:00:14;20.10;99.90
22852;DHT22;11592;45.460;9.240;2022-10-31T18:02:41;20.00;99.90
22852;DHT22;11592;45.460;9.240;2022-10-31T18:05:08;20.00;99.90
22852;DHT22;11592;45.460;9.240;2022-10-31T18:07:35;19.90;99.90
22852;DHT22;11592;45.460;9.240;2022-10-31T18:10:02;19.90;99.90
22852;DHT22;11592;45.460;9.240;2022-10-31T18:12:29;19.90;99.90